Beaver Creek, Minnesota
Current Conditions -  °F | °C
As of 6:15 PM on Thursday 27 Nov 2014 (Local Time) from KLYV Reporting Station
Overcast Overcast  
Wind Chill:   Ceiling: 11000
Heat Index: 14°   Visibility: 10mi
Dew Point:   Wind: 10mph
Humidity: 67%   Direction: 150°SSE
Pressure: 30.23"   Gusts: 17mph
Location:  43.61°N, 96.36°W
Report Text: KLYV 280015Z AUTO 15009G15KT 10SM SCT095 OVC110 M10/M15 A3023 RMK AO2
Loading
Personal Weather Stations






























Interactive Weather Map New forecast layout! Learn more

10-Day Weather Forecast

Advertisements
Track Severe Weather on mobile